createdAt,value
2018-11-20T00:00:39.983Z,28.17
2018-11-20T00:03:28.491Z,30.13
2018-11-20T00:06:21.206Z,29.33
2018-11-20T00:09:07.042Z,32.50
2018-11-20T00:11:55.574Z,29.87
2018-11-20T00:14:31.980Z,32.00
2018-11-20T00:17:36.366Z,32.50
2018-11-20T00:20:38.431Z,28.60
2018-11-20T00:23:30.524Z,33.53
2018-11-20T00:26:13.721Z,31.70
2018-11-20T00:28:59.170Z,32.20
2018-11-20T00:31:47.539Z,33.23
2018-11-20T00:34:40.953Z,33.17
2018-11-20T00:37:19.482Z,30.97
2018-11-20T00:39:59.493Z,34.10
2018-11-20T00:42:40.249Z,33.07
2018-11-20T00:45:29.986Z,38.97
2018-11-20T00:48:16.235Z,31.80
2018-11-20T00:51:03.990Z,38.37
2018-11-20T00:54:12.239Z,34.30
2018-11-20T00:57:00.592Z,38.17
2018-11-20T00:59:42.581Z,36.60
2018-11-20T01:02:41.278Z,35.87
2018-11-20T01:05:29.901Z,46.57
2018-11-20T01:08:18.561Z,39.87
2018-11-20T01:11:08.299Z,36.33
2018-11-20T01:14:16.202Z,39.37
2018-11-20T01:17:09.255Z,38.60
2018-11-20T01:19:58.657Z,37.73
2018-11-20T01:22:53.795Z,41.33
2018-11-20T01:25:49.381Z,36.20
2018-11-20T01:28:29.297Z,38.43
2018-11-20T01:31:17.498Z,35.33
2018-11-20T01:34:05.921Z,46.00
2018-11-20T01:36:54.583Z,35.53
2018-11-20T01:39:33.676Z,32.30
2018-11-20T01:42:34.671Z,30.17
2018-11-20T01:45:22.892Z,45.90
2018-11-20T01:48:11.238Z,34.43
2018-11-20T01:51:03.281Z,37.67
2018-11-20T01:53:56.045Z,38.27
2018-11-20T01:56:42.873Z,29.47
2018-11-20T01:59:31.181Z,31.27
2018-11-20T02:02:20.028Z,31.60
2018-11-20T02:05:19.261Z,32.27
2018-11-20T02:08:14.366Z,32.10
2018-11-20T02:10:56.321Z,30.90
2018-11-20T02:14:00.616Z,30.90
2018-11-20T02:16:55.612Z,25.97
2018-11-20T02:19:43.867Z,27.90
2018-11-20T02:22:28.445Z,28.70
2018-11-20T02:25:16.794Z,32.43
2018-11-20T02:28:03.518Z,24.67
2018-11-20T02:30:50.911Z,24.90
2018-11-20T02:33:32.735Z,22.77
2018-11-20T02:36:16.150Z,22.13
2018-11-20T02:39:18.044Z,23.57
2018-11-20T02:42:07.451Z,25.57
2018-11-20T02:45:11.721Z,27.07
2018-11-20T02:48:00.037Z,27.93
2018-11-20T02:50:45.264Z,30.03
2018-11-20T02:53:33.839Z,26.60
2018-11-20T02:56:15.594Z,25.30
2018-11-20T02:59:11.181Z,25.63
2018-11-20T03:02:19.373Z,27.87
2018-11-20T03:05:07.837Z,28.60
2018-11-20T03:07:55.806Z,30.50
2018-11-20T03:10:43.924Z,30.43
2018-11-20T03:13:28.210Z,31.03
2018-11-20T03:16:16.800Z,30.40
2018-11-20T03:19:09.300Z,35.50
2018-11-20T03:21:47.698Z,38.60
2018-11-20T03:24:37.144Z,36.40
2018-11-20T03:27:38.834Z,35.00
2018-11-20T03:31:04.670Z,33.87
2018-11-20T03:33:51.967Z,32.10
2018-11-20T03:36:41.778Z,32.30
2018-11-20T03:39:22.543Z,35.23
2018-11-20T03:42:05.527Z,39.00
2018-11-20T03:44:53.773Z,34.23
2018-11-20T03:47:47.728Z,37.73
2018-11-20T03:50:35.862Z,33.50
2018-11-20T03:53:24.250Z,33.30
2018-11-20T03:56:04.636Z,32.90
2018-11-20T03:58:53.279Z,34.53
2018-11-20T04:01:40.494Z,32.00
2018-11-20T04:04:28.663Z,33.60
2018-11-20T04:07:09.035Z,35.27
2018-11-20T04:10:02.887Z,32.27
2018-11-20T04:12:51.106Z,30.00
2018-11-20T04:15:39.546Z,33.20
2018-11-20T04:18:27.662Z,32.90
2018-11-20T04:21:08.071Z,32.50
2018-11-20T04:24:08.617Z,31.30
2018-11-20T04:26:54.393Z,28.67
2018-11-20T04:29:42.005Z,31.87
2018-11-20T04:32:24.309Z,29.63
2018-11-20T04:35:07.036Z,29.60
2018-11-20T04:37:55.065Z,35.10
2018-11-20T04:40:43.432Z,32.23
2018-11-20T04:43:33.431Z,30.90
2018-11-20T04:46:24.227Z,30.07
2018-11-20T04:49:12.441Z,28.73
2018-11-20T04:52:14.207Z,29.27
2018-11-20T04:54:53.263Z,33.50
2018-11-20T04:57:43.405Z,28.13
2018-11-20T05:00:35.453Z,27.73
2018-11-20T05:03:17.608Z,25.93
2018-11-20T05:06:06.218Z,28.50
2018-11-20T05:09:11.283Z,26.50
2018-11-20T05:12:06.767Z,25.80
2018-11-20T05:15:05.735Z,31.03
2018-11-20T05:17:57.883Z,29.60
2018-11-20T05:20:56.434Z,27.00
2018-11-20T05:23:45.852Z,27.20
2018-11-20T05:26:40.154Z,30.00
2018-11-20T05:29:24.786Z,27.10
2018-11-20T05:32:13.187Z,28.87
2018-11-20T05:35:01.715Z,32.03
2018-11-20T05:38:06.254Z,26.87
2018-11-20T05:40:54.291Z,30.40
2018-11-20T05:43:39.155Z,29.17
2018-11-20T05:46:37.719Z,30.37
2018-11-20T05:49:25.878Z,33.23
2018-11-20T05:52:09.520Z,34.13
2018-11-20T05:54:54.413Z,34.97
2018-11-20T05:57:39.568Z,36.20
2018-11-20T06:00:18.403Z,29.67
2018-11-20T06:03:10.343Z,34.53
2018-11-20T06:06:00.446Z,33.53
2018-11-20T06:08:48.516Z,32.43
2018-11-20T06:11:53.172Z,35.10
2018-11-20T06:14:41.051Z,35.23
2018-11-20T06:17:29.158Z,35.70
2018-11-20T06:20:18.844Z,36.43
2018-11-20T06:23:07.810Z,34.70
2018-11-20T06:25:57.598Z,33.47
2018-11-20T06:28:42.247Z,33.03
2018-11-20T06:31:30.881Z,30.10
2018-11-20T06:34:09.584Z,33.73
2018-11-20T06:36:50.476Z,31.10
2018-11-20T06:39:47.310Z,34.53
2018-11-20T06:42:48.841Z,33.77
2018-11-20T06:45:38.849Z,34.27
2018-11-20T06:48:27.015Z,35.80
2018-11-20T06:51:08.982Z,40.23
2018-11-20T06:54:14.530Z,36.77
2018-11-20T06:57:02.590Z,36.47
2018-11-20T07:00:10.375Z,43.30
2018-11-20T07:02:58.528Z,35.07
2018-11-20T07:05:40.628Z,39.67
2018-11-20T07:08:21.901Z,38.77
2018-11-20T07:11:10.355Z,40.80
2018-11-20T07:14:36.607Z,34.63
2018-11-20T07:17:38.163Z,35.87
2018-11-20T07:20:19.935Z,38.30
2018-11-20T07:22:57.926Z,33.47
2018-11-20T07:25:39.422Z,36.73
2018-11-20T07:28:35.399Z,40.53
2018-11-20T07:31:23.838Z,32.40
2018-11-20T07:34:23.023Z,34.83
2018-11-20T07:37:15.877Z,31.50
2018-11-20T07:40:05.134Z,32.33
2018-11-20T07:43:00.672Z,29.87
2018-11-20T07:45:48.645Z,32.43
2018-11-20T07:48:54.035Z,27.97
2018-11-20T07:52:01.756Z,29.47
2018-11-20T07:54:49.911Z,28.93
2018-11-20T07:57:45.599Z,31.67
2018-11-20T08:00:38.060Z,31.00
2018-11-20T08:03:18.924Z,29.30
2018-11-20T08:06:02.794Z,30.30
2018-11-20T08:08:52.573Z,31.60
2018-11-20T08:11:41.342Z,28.30
2018-11-20T08:14:36.413Z,30.83
2018-11-20T08:17:24.515Z,33.70
2018-11-20T08:20:12.759Z,33.70
2018-11-20T08:23:02.363Z,33.20
2018-11-20T08:25:50.486Z,34.23
2018-11-20T08:28:38.934Z,37.20
2018-11-20T08:31:25.479Z,35.60
2018-11-20T08:34:16.966Z,33.57
2018-11-20T08:37:05.362Z,39.00
2018-11-20T08:39:55.243Z,34.60
2018-11-20T08:42:43.711Z,32.70
2018-11-20T08:45:32.858Z,39.50
2018-11-20T08:48:20.980Z,35.90
2018-11-20T08:51:13.899Z,36.30
2018-11-20T08:53:57.802Z,38.10
2018-11-20T08:56:45.777Z,35.23
2018-11-20T08:59:33.878Z,31.23
2018-11-20T09:02:20.033Z,35.67
2018-11-20T09:05:13.414Z,31.80
2018-11-20T09:08:05.355Z,35.33
2018-11-20T09:10:53.559Z,34.17
2018-11-20T09:13:41.837Z,32.77
2018-11-20T09:16:43.747Z,33.97
2018-11-20T09:19:29.071Z,35.33
2018-11-20T09:22:14.958Z,34.80
2018-11-20T09:25:16.615Z,36.33
2018-11-20T09:28:04.710Z,32.50
2018-11-20T09:31:09.023Z,32.43
2018-11-20T09:34:13.510Z,36.37
2018-11-20T09:36:59.588Z,34.53
2018-11-20T09:39:54.276Z,33.40
2018-11-20T09:42:33.091Z,32.27
2018-11-20T09:46:05.543Z,33.23
2018-11-20T09:49:05.579Z,33.37
2018-11-20T09:51:58.599Z,37.30
2018-11-20T09:54:48.234Z,33.43
2018-11-20T09:57:41.179Z,36.83
2018-11-20T10:00:36.101Z,34.70
2018-11-20T10:03:19.385Z,35.20
2018-11-20T10:06:02.398Z,35.33
2018-11-20T10:09:07.077Z,32.23
2018-11-20T10:11:56.512Z,31.93
2018-11-20T10:14:38.261Z,31.00
2018-11-20T10:17:29.986Z,34.53
2018-11-20T10:20:19.684Z,34.10
2018-11-20T10:23:08.582Z,33.50
2018-11-20T10:26:07.320Z,35.23
2018-11-20T10:28:55.293Z,34.50
2018-11-20T10:31:43.601Z,32.80
2018-11-20T10:34:31.856Z,34.60
2018-11-20T10:37:18.889Z,35.37
2018-11-20T10:40:12.676Z,30.17
2018-11-20T10:42:56.090Z,29.90
2018-11-20T10:45:41.126Z,29.80
2018-11-20T10:48:28.194Z,31.33
2018-11-20T10:51:16.870Z,30.93
2018-11-20T10:54:15.356Z,30.60
2018-11-20T10:56:55.634Z,30.93
2018-11-20T10:59:39.182Z,32.40
2018-11-20T11:02:27.185Z,33.87
2018-11-20T11:05:14.905Z,34.30
2018-11-20T11:08:03.629Z,33.70
2018-11-20T11:10:46.091Z,35.03
2018-11-20T11:13:33.945Z,32.30
2018-11-20T11:16:22.420Z,29.80
2018-11-20T11:19:15.837Z,30.40
2018-11-20T11:22:17.208Z,32.47
2018-11-20T11:25:05.566Z,32.43
2018-11-20T11:28:00.835Z,34.83
2018-11-20T11:30:49.939Z,30.23
2018-11-20T11:33:39.373Z,30.93
2018-11-20T11:36:18.109Z,30.80
2018-11-20T11:39:01.358Z,32.33
2018-11-20T11:41:43.107Z,30.73
2018-11-20T11:44:35.714Z,36.13
2018-11-20T11:47:25.229Z,33.17
2018-11-20T11:50:14.340Z,30.00
2018-11-20T11:53:09.524Z,33.77
2018-11-20T11:55:55.021Z,34.50
2018-11-20T11:58:43.086Z,34.80
2018-11-20T12:04:38.400Z,33.90
2018-11-20T12:07:26.703Z,33.13
2018-11-20T12:10:16.134Z,35.60
2018-11-20T12:12:56.615Z,38.27
2018-11-20T12:15:44.975Z,32.17
2018-11-20T12:18:43.635Z,33.60
2018-11-20T12:21:33.351Z,34.20
2018-11-20T12:24:19.787Z,34.73
2018-11-20T12:27:00.395Z,36.97
2018-11-20T12:29:46.672Z,31.90
2018-11-20T12:32:37.359Z,35.33
2018-11-20T12:35:33.263Z,33.90
2018-11-20T12:38:12.311Z,33.07
2018-11-20T12:41:00.989Z,38.00
2018-11-20T12:43:54.828Z,35.87
2018-11-20T12:46:42.522Z,36.53
2018-11-20T12:49:44.507Z,35.57
2018-11-20T12:52:37.093Z,33.07
2018-11-20T12:55:45.987Z,30.90
2018-11-20T12:58:48.106Z,34.50
2018-11-20T13:01:29.251Z,33.07
2018-11-20T13:04:18.655Z,39.63
2018-11-20T13:07:14.740Z,37.13
2018-11-20T13:09:53.569Z,38.33
2018-11-20T13:12:44.785Z,35.83
2018-11-20T13:15:37.577Z,38.57
2018-11-20T13:18:16.038Z,33.57
2018-11-20T13:20:58.157Z,36.47
2018-11-20T13:23:59.883Z,41.90
2018-11-20T13:26:47.951Z,35.00
2018-11-20T13:29:51.392Z,36.77
2018-11-20T13:32:45.661Z,38.20
2018-11-20T13:35:41.899Z,40.63
2018-11-20T13:38:22.470Z,44.50
2018-11-20T13:42:07.220Z,34.97
2018-11-20T13:45:18.605Z,42.50
2018-11-20T13:48:03.146Z,39.47
2018-11-20T13:50:51.844Z,38.50
2018-11-20T13:53:39.773Z,34.80
2018-11-20T13:56:39.829Z,36.20
2018-11-20T13:59:28.373Z,42.57
2018-11-20T14:02:20.850Z,40.80
2018-11-20T14:05:18.732Z,39.10
2018-11-20T14:08:28.285Z,38.30
2018-11-20T14:11:16.119Z,44.67
2018-11-20T14:14:04.790Z,42.00
2018-11-20T14:16:53.079Z,44.73
2018-11-20T14:19:41.688Z,38.40
2018-11-20T14:22:40.261Z,38.90
2018-11-20T14:25:44.324Z,40.47
2018-11-20T14:28:39.979Z,41.50
2018-11-20T14:31:35.995Z,41.43
2018-11-20T14:34:31.227Z,41.43
2018-11-20T14:37:19.715Z,36.43
2018-11-20T14:40:01.570Z,45.23
2018-11-20T14:42:56.784Z,37.30
2018-11-20T14:45:38.217Z,39.77
2018-11-20T14:48:21.348Z,43.07
2018-11-20T14:51:10.843Z,43.00
2018-11-20T14:54:18.645Z,38.87
2018-11-20T14:57:06.726Z,49.10
2018-11-20T14:59:54.962Z,45.03
2018-11-20T15:03:03.158Z,45.93
2018-11-20T15:05:48.460Z,50.97
2018-11-20T15:08:37.856Z,45.60
2018-11-20T15:11:30.752Z,49.87
2018-11-20T15:14:18.747Z,58.33
2018-11-20T15:17:26.467Z,52.03
2018-11-20T15:20:14.020Z,54.23
2018-11-20T15:23:09.412Z,53.57
2018-11-20T15:26:04.161Z,60.80
2018-11-20T15:28:50.620Z,53.83
2018-11-20T15:31:34.740Z,61.77
2018-11-20T15:34:36.146Z,67.77
2018-11-20T15:37:25.875Z,58.43
2018-11-20T15:40:30.868Z,64.43
2018-11-20T15:43:18.148Z,62.50
2018-11-20T15:46:11.239Z,71.23
2018-11-20T15:49:00.201Z,62.77
2018-11-20T15:51:48.236Z,67.50
2018-11-20T15:54:36.164Z,71.00
2018-11-20T15:57:25.839Z,57.43
2018-11-20T16:00:15.251Z,67.20
2018-11-20T16:03:23.025Z,68.47
2018-11-20T16:05:58.501Z,64.93
2018-11-20T16:08:46.931Z,64.43
2018-11-20T16:11:35.441Z,62.33
2018-11-20T16:14:24.050Z,66.27
2018-11-20T16:17:16.768Z,68.83
2018-11-20T16:20:01.460Z,62.37
2018-11-20T16:22:45.726Z,66.80
2018-11-20T16:25:49.091Z,61.70
2018-11-20T16:28:44.432Z,61.97
2018-11-20T16:31:25.341Z,66.67
2018-11-20T16:34:13.433Z,63.10
2018-11-20T16:37:02.008Z,60.90
2018-11-20T16:39:50.142Z,75.77
2018-11-20T16:42:29.258Z,66.23
2018-11-20T16:45:18.680Z,72.27
2018-11-20T16:47:59.433Z,74.17
2018-11-20T16:50:49.676Z,71.60
2018-11-20T16:53:44.855Z,71.90
2018-11-20T16:56:43.437Z,70.60
2018-11-20T16:59:47.679Z,71.93
2018-11-20T17:02:43.815Z,70.80
2018-11-20T17:05:51.562Z,70.60
2018-11-20T17:08:39.702Z,84.57
2018-11-20T17:11:28.031Z,76.60
2018-11-20T17:14:16.884Z,74.93
2018-11-20T17:17:12.173Z,77.20
2018-11-20T17:20:23.888Z,75.47
2018-11-20T17:23:08.298Z,83.83
2018-11-20T17:26:03.660Z,78.57
2018-11-20T17:28:53.984Z,78.73
2018-11-20T17:32:24.951Z,71.50
2018-11-20T17:35:18.056Z,77.53
2018-11-20T17:38:05.126Z,76.30
2018-11-20T17:40:52.246Z,77.53
2018-11-20T17:43:42.965Z,70.70
2018-11-20T17:46:21.829Z,69.90
2018-11-20T17:49:05.724Z,76.40
2018-11-20T17:51:53.011Z,72.60
2018-11-20T17:54:30.354Z,70.07
2018-11-20T17:57:19.486Z,73.33
2018-11-20T18:00:05.975Z,64.40
2018-11-20T18:02:56.853Z,69.83
2018-11-20T18:05:43.927Z,59.87
2018-11-20T18:08:35.183Z,74.20
2018-11-20T18:11:26.984Z,68.33
2018-11-20T18:14:05.067Z,73.53
2018-11-20T18:16:47.907Z,69.07
2018-11-20T18:19:33.120Z,73.73
2018-11-20T18:22:36.420Z,67.97
2018-11-20T18:25:33.231Z,65.60
2018-11-20T18:28:33.724Z,68.47
2018-11-20T18:31:20.605Z,70.37
2018-11-20T18:34:08.089Z,64.00
2018-11-20T18:36:56.242Z,65.67
2018-11-20T18:39:59.475Z,67.53
2018-11-20T18:42:44.283Z,71.70
2018-11-20T18:45:30.103Z,59.10
2018-11-20T18:48:17.568Z,63.00
2018-11-20T18:51:04.896Z,63.90
2018-11-20T18:53:54.704Z,65.67
2018-11-20T18:56:45.093Z,60.67
2018-11-20T18:59:23.602Z,65.03
2018-11-20T19:02:10.542Z,66.70
2018-11-20T19:05:00.767Z,58.17
2018-11-20T19:07:47.772Z,59.30
2018-11-20T19:10:54.365Z,64.20
2018-11-20T19:13:32.567Z,60.93
2018-11-20T19:16:11.755Z,66.10
2018-11-20T19:18:58.871Z,64.00
2018-11-20T19:21:56.024Z,69.87
2018-11-20T19:24:42.942Z,67.67
2018-11-20T19:27:24.751Z,61.40
2018-11-20T19:30:12.897Z,67.67
2018-11-20T19:33:03.852Z,68.30
2018-11-20T19:36:10.261Z,77.00
2018-11-20T19:38:57.805Z,71.97
2018-11-20T19:41:48.887Z,70.63
2018-11-20T19:44:32.019Z,72.53
2018-11-20T19:47:17.656Z,68.40
2018-11-20T19:50:00.166Z,66.60
2018-11-20T19:52:46.980Z,66.63
2018-11-20T19:55:47.185Z,71.00
2018-11-20T19:58:34.959Z,64.33
2018-11-20T20:01:22.479Z,71.07
2018-11-20T20:04:19.789Z,62.33
2018-11-20T20:07:08.018Z,63.77
2018-11-20T20:10:16.560Z,63.20
2018-11-20T20:13:08.501Z,67.50
2018-11-20T20:15:59.301Z,66.40
2018-11-20T20:18:48.120Z,63.07
2018-11-20T20:21:34.641Z,64.70
2018-11-20T20:24:33.161Z,65.87
2018-11-20T20:27:20.446Z,63.70
2018-11-20T20:30:07.704Z,58.83
2018-11-20T20:32:54.605Z,59.70
2018-11-20T20:35:43.140Z,58.77
2018-11-20T20:38:30.351Z,60.27
2018-11-20T20:41:09.910Z,60.97
2018-11-20T20:43:57.324Z,60.90
2018-11-20T20:46:39.278Z,55.90
2018-11-20T20:49:21.715Z,59.20
2018-11-20T20:52:08.694Z,56.93
2018-11-20T20:54:53.916Z,52.23
2018-11-20T20:57:57.025Z,56.03
2018-11-20T21:00:50.197Z,59.93
2018-11-20T21:03:31.863Z,53.80
2018-11-20T21:06:18.951Z,54.00
2018-11-20T21:09:22.193Z,62.67
2018-11-20T21:12:13.034Z,54.53
2018-11-20T21:14:51.155Z,55.10
2018-11-20T21:17:38.614Z,63.40
2018-11-20T21:20:33.147Z,53.20
2018-11-20T21:23:36.254Z,58.73
2018-11-20T21:26:16.334Z,61.90
2018-11-20T21:29:05.072Z,55.93
2018-11-20T21:31:51.805Z,48.53
2018-11-20T21:34:55.679Z,54.37
2018-11-20T21:37:43.019Z,52.80
2018-11-20T21:40:34.105Z,57.33
2018-11-20T21:43:22.291Z,53.73
2018-11-20T21:46:09.331Z,56.70
2018-11-20T21:49:06.998Z,54.30
2018-11-20T21:51:55.156Z,53.50
2018-11-20T21:54:33.518Z,48.87
2018-11-20T21:57:50.283Z,59.83
2018-11-20T22:00:54.525Z,60.87
2018-11-20T22:03:52.090Z,53.03
2018-11-20T22:06:40.501Z,55.10
2018-11-20T22:09:28.146Z,49.13
2018-11-20T22:12:08.104Z,47.97
2018-11-20T22:15:02.530Z,57.30
2018-11-20T22:17:53.840Z,60.80
2018-11-20T22:20:53.918Z,51.33
2018-11-20T22:23:33.955Z,54.17
2018-11-20T22:26:21.037Z,52.23
2018-11-20T22:29:02.656Z,49.00
2018-11-20T22:32:05.805Z,53.03
2018-11-20T22:35:03.345Z,55.23
2018-11-20T22:41:40.285Z,53.30
2018-11-20T22:44:16.522Z,49.50
2018-11-20T22:47:10.657Z,52.47
2018-11-20T22:50:02.205Z,51.43
2018-11-20T22:52:43.663Z,52.03
2018-11-20T22:55:30.899Z,54.27
2018-11-20T22:58:14.030Z,49.77
2018-11-20T23:01:01.078Z,49.97
2018-11-20T23:03:38.336Z,47.63
2018-11-20T23:06:16.741Z,46.70
2018-11-20T23:08:46.394Z,45.00
2018-11-20T23:11:15.567Z,47.17
2018-11-20T23:13:44.915Z,48.03
2018-11-20T23:16:14.028Z,49.27
2018-11-20T23:18:43.494Z,50.80
2018-11-20T23:21:13.206Z,43.43
2018-11-20T23:23:43.019Z,55.10
2018-11-20T23:26:12.134Z,47.10
2018-11-20T23:28:41.581Z,50.47
2018-11-20T23:31:10.710Z,57.43
2018-11-20T23:33:40.197Z,43.93
2018-11-20T23:36:09.313Z,47.23
2018-11-20T23:38:38.701Z,48.03
2018-11-20T23:41:08.346Z,49.53
2018-11-20T23:43:37.526Z,46.20
2018-11-20T23:46:06.916Z,47.80
2018-11-20T23:48:36.674Z,46.80
2018-11-20T23:51:05.970Z,45.33
2018-11-20T23:53:35.375Z,49.43
2018-11-20T23:56:04.797Z,49.03
2018-11-20T23:58:34.384Z,43.67
